Time;durP1;ratioP1;P1;durP2;ratioP2;P2;SDS_P1;SDS_P2;PMS_P1;PMS_P2;Temp;Humidity;BMP_temperature;BMP_pressure;BME280_temperature;BME280_humidity;BME280_pressure;Samples;Min_cycle;Max_cycle;Signal;HPM_P1;HPM_P2
2023/10/10 00:01:48;;;;;;;0.10;0.10;;;;;;;25.79;56.93;102105.44;5050166;28;20044;-64
2023/10/10 00:04:19;;;;;;;0.00;0.00;;;;;;;25.46;57.77;102107.25;5053422;28;20111;-64
2023/10/10 00:06:44;;;;;;;0.00;0.00;;;;;;;25.18;58.56;102099.84;5071750;28;20040;-63
2023/10/10 00:09:10;;;;;;;0.10;0.10;;;;;;;25.49;57.41;102100.34;5072344;28;20039;-64
2023/10/10 00:11:40;;;;;;;0.03;0.03;;;;;;;25.36;57.88;102103.75;5071640;28;20033;-63
2023/10/10 00:14:06;;;;;;;0.00;0.00;;;;;;;25.15;58.38;102097.69;5072286;28;20036;-64
2023/10/10 00:16:35;;;;;;;0.00;0.00;;;;;;;24.78;59.45;102092.03;5054232;28;20472;-64
2023/10/10 00:19:21;;;;;;;0.00;0.00;;;;;;;25.12;59.00;102088.06;5072442;28;20051;-64
2023/10/10 00:21:47;;;;;;;0.10;0.10;;;;;;;24.72;59.97;102096.75;5072525;28;20504;-64
2023/10/10 00:24:14;;;;;;;0.00;0.00;;;;;;;24.99;59.35;102098.94;5072943;28;20117;-63
2023/10/10 00:26:42;;;;;;;0.00;0.00;;;;;;;25.13;59.20;102092.47;5072122;28;20040;-64
2023/10/10 00:29:09;;;;;;;0.10;0.10;;;;;;;24.85;60.15;102089.75;5072361;28;20397;-63
2023/10/10 00:31:34;;;;;;;0.00;0.00;;;;;;;24.88;60.49;102086.44;5072377;28;20058;-66
2023/10/10 00:34:00;;;;;;;0.00;0.00;;;;;;;24.82;60.65;102079.34;5079601;28;20051;-64
2023/10/10 00:36:33;;;;;;;0.10;0.10;;;;;;;24.60;62.18;102088.03;5080639;28;20024;-64
2023/10/10 00:41:51;;;;;;;0.00;0.00;;;;;;;24.78;60.79;102092.84;5071984;28;20072;-64
2023/10/10 00:44:17;;;;;;;;;;;;;;;25.16;59.41;102091.88;5072461;28;20032;-65
2023/10/10 00:46:51;;;;;;;0.08;0.08;;;;;;;25.03;59.55;102094.50;5072048;28;20352;-63
2023/10/10 00:49:23;;;;;;;0.10;0.10;;;;;;;25.01;59.68;102100.31;5072124;28;20067;-63
2023/10/10 00:51:50;;;;;;;0.10;0.10;;;;;;;24.56;61.61;102091.63;5071824;28;20047;-64
2023/10/10 00:56:59;;;;;;;0.10;0.10;;;;;;;25.05;60.20;102084.88;5071774;28;20088;-64
2023/10/10 00:59:42;;;;;;;0.10;0.10;;;;;;;24.97;59.73;102080.00;5071580;28;20033;-63
2023/10/10 01:02:10;;;;;;;0.00;0.00;;;;;;;24.47;61.59;102079.63;5071782;28;20032;-63
2023/10/10 01:04:38;;;;;;;0.00;0.00;;;;;;;24.69;61.39;102077.22;5071661;28;20032;-64
2023/10/10 01:07:06;;;;;;;0.10;0.10;;;;;;;24.78;60.66;102068.09;5071928;28;20098;-66
2023/10/10 01:09:34;;;;;;;0.10;0.10;;;;;;;24.35;62.09;102067.06;5071816;28;20456;-63
2023/10/10 01:12:04;;;;;;;0.00;0.00;;;;;;;24.94;60.06;102069.56;5072325;28;20112;-64
2023/10/10 01:14:30;;;;;;;;;;;;;;;25.35;58.42;102069.09;5072025;28;20437;-64
2023/10/10 01:16:57;;;;;;;0.00;0.00;;;;;;;25.07;59.57;102059.81;5071546;28;20295;-64
2023/10/10 01:19:28;;;;;;;0.00;0.00;;;;;;;25.05;59.43;102059.28;5071318;28;20094;-63
2023/10/10 01:22:00;;;;;;;;;;;;;;;25.30;58.80;102060.94;5072178;28;20059;-64
2023/10/10 01:24:26;;;;;;;0.00;0.00;;;;;;;24.81;60.57;102048.25;5071545;28;20261;-64
2023/10/10 01:26:53;;;;;;;0.00;0.00;;;;;;;24.99;60.02;102053.03;5072167;28;20040;-64
2023/10/10 01:29:26;;;;;;;0.10;0.10;;;;;;;25.15;59.24;102053.66;5071421;28;20037;-65
2023/10/10 01:31:59;;;;;;;0.10;0.10;;;;;;;24.96;59.72;102048.09;5038490;28;20048;-63
2023/10/10 01:34:43;;;;;;;0.10;0.10;;;;;;;24.75;61.00;102054.09;5071082;28;20032;-63
2023/10/10 01:37:14;;;;;;;0.10;0.10;;;;;;;25.03;59.98;102054.06;5071326;28;20036;-63
2023/10/10 01:39:53;;;;;;;0.10;0.10;;;;;;;25.15;59.91;102042.66;5071232;28;20044;-64
2023/10/10 01:42:24;;;;;;;0.00;0.00;;;;;;;24.86;60.52;102039.97;5071064;28;20032;-64
2023/10/10 01:44:51;;;;;;;0.08;0.08;;;;;;;25.01;59.98;102037.03;5053441;28;20013;-64
2023/10/10 01:47:26;;;;;;;0.10;0.10;;;;;;;25.05;59.67;102040.03;5070870;28;20059;-63
2023/10/10 01:49:52;;;;;;;0.10;0.10;;;;;;;25.11;59.64;102047.09;5070799;28;20044;-64
2023/10/10 01:52:20;;;;;;;0.00;0.00;;;;;;;25.11;59.55;102036.09;5070897;28;20036;-64
2023/10/10 01:54:52;;;;;;;0.10;0.10;;;;;;;25.09;59.64;102038.31;5070534;28;20092;-65
2023/10/10 01:57:21;;;;;;;0.00;0.00;;;;;;;25.18;59.53;102039.31;5070322;28;20431;-64
2023/10/10 01:59:48;;;;;;;0.00;0.00;;;;;;;24.70;60.79;102032.94;5071138;28;20036;-65
2023/10/10 02:02:16;;;;;;;0.10;0.10;;;;;;;24.97;60.22;102033.25;5070751;28;20032;-63
2023/10/10 02:04:44;;;;;;;0.08;0.08;;;;;;;24.74;60.70;102030.47;5070585;28;20131;-63
2023/10/10 02:07:23;;;;;;;0.05;0.05;;;;;;;25.12;59.61;102029.47;5070686;28;20039;-64
2023/10/10 02:12:36;;;;;;;0.00;0.00;;;;;;;25.04;59.75;102028.19;5070332;28;20308;-64
2023/10/10 02:15:04;;;;;;;0.10;0.10;;;;;;;25.17;59.02;102023.91;5070839;28;20025;-64
2023/10/10 02:17:30;;;;;;;0.10;0.10;;;;;;;25.18;59.18;102022.78;5070249;28;20044;-64
2023/10/10 02:20:19;;;;;;;0.08;0.08;;;;;;;25.11;59.27;102025.09;5070330;28;20033;-64
2023/10/10 02:22:51;;;;;;;0.10;0.10;;;;;;;25.13;59.03;102025.63;5070282;28;20066;-63
2023/10/10 02:28:03;;;;;;;0.05;0.05;;;;;;;24.96;60.12;102023.31;5085922;28;20040;-63
2023/10/10 02:30:40;;;;;;;0.00;0.00;;;;;;;25.05;59.73;102018.84;5070393;28;20450;-64
2023/10/10 02:38:31;;;;;;;0.00;0.00;;;;;;;24.78;60.48;101998.53;4949613;29;20523;-64
2023/10/10 02:41:14;;;;;;;0.08;0.08;;;;;;;24.69;60.71;102002.97;4949426;29;20149;-64
2023/10/10 02:43:46;;;;;;;0.10;0.10;;;;;;;24.98;59.58;101992.81;4949306;29;20049;-63
2023/10/10 02:46:17;;;;;;;0.10;0.10;;;;;;;24.98;59.89;102001.06;4949168;29;20044;-63
2023/10/10 02:48:44;;;;;;;0.08;0.08;;;;;;;25.20;59.14;101998.56;4949178;29;20103;-63
2023/10/10 02:51:15;;;;;;;0.08;0.08;;;;;;;25.08;59.53;101998.19;4949635;29;20034;-64
2023/10/10 02:53:46;;;;;;;0.00;0.00;;;;;;;24.99;59.59;101988.94;4949158;28;20043;-63
2023/10/10 02:56:18;;;;;;;0.05;0.05;;;;;;;24.84;60.78;101989.94;4949274;28;20480;-63
2023/10/10 02:58:45;;;;;;;0.00;0.00;;;;;;;24.40;61.99;101994.75;4948860;28;20487;-64
2023/10/10 03:01:46;;;;;;;0.00;0.00;;;;;;;24.50;61.89;101996.59;4949356;28;20076;-63
2023/10/10 03:03:56;;;;;;;0.10;0.10;;;;;;;24.74;60.34;101995.56;4949290;28;20035;-65
2023/10/10 03:06:28;;;;;;;0.00;0.00;;;;;;;24.71;61.16;101992.50;4949186;28;20392;-64
2023/10/10 03:09:07;;;;;;;0.08;0.08;;;;;;;24.47;61.59;102002.69;4949823;29;20038;-63
2023/10/10 03:11:53;;;;;;;0.10;0.10;;;;;;;24.85;60.36;101988.81;4934844;29;20043;-64
2023/10/10 03:14:25;;;;;;;0.00;0.00;;;;;;;25.04;59.31;101995.19;5069604;28;20353;-65
2023/10/10 03:17:03;;;;;;;0.00;0.00;;;;;;;25.06;59.97;101995.69;5069602;28;20033;-64
2023/10/10 03:19:36;;;;;;;0.00;0.00;;;;;;;24.62;61.08;101995.09;5069667;28;20561;-64
2023/10/10 03:25:07;;;;;;;0.10;0.10;;;;;;;24.09;63.54;102001.63;5069786;28;20561;-65
2023/10/10 03:30:22;;;;;;;0.10;0.10;;;;;;;24.66;61.42;102004.41;5070027;28;20032;-65
2023/10/10 03:33:08;;;;;;;0.10;0.10;;;;;;;24.85;60.53;102004.50;5069919;28;20021;-63
2023/10/10 03:35:51;;;;;;;0.10;0.10;;;;;;;24.05;63.11;102000.56;5069431;28;20045;-64
2023/10/10 03:38:43;;;;;;;0.10;0.10;;;;;;;24.55;61.76;102004.78;5071169;28;20110;-64
2023/10/10 05:25:10;;;;;;;0.13;0.13;;;;;;;23.73;61.18;101888.50;5070421;28;20048;-63
2023/10/10 05:27:41;;;;;;;0.10;0.10;;;;;;;23.76;61.80;101895.34;5069991;28;20040;-63
2023/10/10 05:30:07;;;;;;;0.10;0.10;;;;;;;23.67;61.88;101903.34;5070548;28;20032;-63
2023/10/10 05:32:32;;;;;;;0.10;0.10;;;;;;;23.62;61.67;101900.66;5069834;28;20404;-64
2023/10/10 05:34:58;;;;;;;0.10;0.10;;;;;;;23.69;61.86;101903.06;5069511;28;20044;-63
2023/10/10 05:37:25;;;;;;;0.00;0.00;;;;;;;23.78;61.14;101907.69;5070213;28;20504;-64
2023/10/10 05:39:56;;;;;;;0.10;0.10;;;;;;;23.68;61.56;101899.53;5069792;28;20131;-64
2023/10/10 05:42:25;;;;;;;0.10;0.10;;;;;;;23.76;61.23;101889.84;5069837;28;20467;-64
2023/10/10 05:44:51;;;;;;;0.10;0.10;;;;;;;23.72;61.70;101880.53;5069558;28;20017;-64
2023/10/10 05:47:17;;;;;;;0.10;0.10;;;;;;;23.67;61.76;101883.31;5069189;28;20040;-63
2023/10/10 05:49:42;;;;;;;0.00;0.00;;;;;;;23.62;61.47;101894.34;5069255;28;20438;-64
2023/10/10 05:52:08;;;;;;;0.10;0.10;;;;;;;23.72;61.34;101886.03;5069180;28;20032;-64
2023/10/10 05:54:33;;;;;;;0.10;0.10;;;;;;;23.43;62.62;101889.53;5068722;28;20035;-66
2023/10/10 05:57:02;;;;;;;0.10;0.10;;;;;;;23.55;61.85;101881.78;5070060;28;20142;-64
2023/10/10 05:59:28;;;;;;;0.20;0.20;;;;;;;23.67;61.87;101892.38;5069382;28;20040;-65
2023/10/10 06:01:53;;;;;;;0.10;0.10;;;;;;;23.56;61.92;101874.38;5068130;28;20113;-65
2023/10/10 06:04:19;;;;;;;0.10;0.10;;;;;;;23.46;62.64;101879.94;5069394;28;20032;-64
2023/10/10 06:06:46;;;;;;;0.10;0.10;;;;;;;23.65;61.79;101871.81;5069444;28;20080;-64
2023/10/10 06:09:18;;;;;;;0.10;0.10;;;;;;;23.72;61.67;101878.63;5069650;28;20032;-64
2023/10/10 06:11:44;;;;;;;0.10;0.10;;;;;;;23.92;61.56;101874.88;5078868;28;20036;-64
2023/10/10 06:14:11;;;;;;;0.10;0.10;;;;;;;23.80;62.02;101883.50;5075064;28;20043;-63
2023/10/10 06:16:37;;;;;;;0.10;0.10;;;;;;;23.88;61.76;101890.28;5050599;28;20416;-65
2023/10/10 06:19:03;;;;;;;0.10;0.10;;;;;;;23.94;62.01;101880.91;5069117;28;20043;-64
2023/10/10 06:21:29;;;;;;;0.10;0.10;;;;;;;23.94;61.99;101881.69;5069122;28;20063;-64
2023/10/10 06:23:55;;;;;;;0.10;0.10;;;;;;;23.81;62.95;101890.63;5050856;28;20085;-65
2023/10/10 06:26:21;;;;;;;0.10;0.10;;;;;;;23.81;62.23;101887.03;5068515;28;20037;-65
2023/10/10 06:28:50;;;;;;;0.10;0.10;;;;;;;22.76;66.87;101897.56;5066434;28;20062;-64
2023/10/10 06:31:19;;;;;;;0.10;0.10;;;;;;;23.45;64.64;101898.31;5068568;28;20024;-64
2023/10/10 06:33:51;;;;;;;0.08;0.08;;;;;;;24.15;61.92;101901.59;5066190;28;20055;-63
2023/10/10 06:38:59;;;;;;;0.10;0.10;;;;;;;23.28;65.51;101899.75;5069413;28;20116;-62
2023/10/10 06:41:28;;;;;;;0.10;0.10;;;;;;;23.77;63.79;101899.72;5069678;28;20044;-64
2023/10/10 06:43:54;;;;;;;0.13;0.13;;;;;;;23.60;64.49;101891.91;5069783;28;20519;-64
2023/10/10 06:46:19;;;;;;;0.10;0.10;;;;;;;23.94;62.99;101895.44;5068545;28;20064;-64
2023/10/10 06:48:47;;;;;;;0.10;0.10;;;;;;;23.79;63.51;101892.00;5068723;28;20169;-64
2023/10/10 06:51:15;;;;;;;0.10;0.10;;;;;;;23.81;63.78;101885.13;5069122;28;20028;-63
2023/10/10 06:53:44;;;;;;;0.10;0.10;;;;;;;23.58;64.99;101891.38;5068579;28;20037;-64
2023/10/10 06:56:17;;;;;;;0.10;0.10;;;;;;;23.55;64.98;101887.25;5068887;28;20029;-65
2023/10/10 06:58:46;;;;;;;0.10;0.10;;;;;;;23.47;65.65;101885.13;5050033;28;20056;-64
2023/10/10 07:01:12;;;;;;;0.10;0.10;;;;;;;22.36;69.85;101881.25;5068754;28;20029;-65
2023/10/10 07:03:46;;;;;;;0.10;0.10;;;;;;;23.48;65.83;101883.22;5068644;28;20037;-64
2023/10/10 07:06:12;;;;;;;0.10;0.10;;;;;;;23.52;65.10;101879.63;5069165;28;20060;-64
2023/10/10 07:08:37;;;;;;;0.10;0.10;;;;;;;23.28;66.50;101894.28;5064624;28;20135;-63
2023/10/10 07:11:03;;;;;;;0.10;0.10;;;;;;;23.19;66.54;101902.28;5050759;28;20033;-63
2023/10/10 07:13:32;;;;;;;0.10;0.10;;;;;;;23.88;64.31;101904.81;5071934;28;20048;-64
2023/10/10 07:15:58;;;;;;;0.10;0.10;;;;;;;23.50;65.45;101901.03;5072575;28;20665;-64
2023/10/10 07:18:24;;;;;;;0.15;0.15;;;;;;;23.64;64.13;101900.38;5072963;28;20371;-63
2023/10/10 07:21:04;;;;;;;0.10;0.10;;;;;;;23.92;64.61;101896.84;5072863;28;20047;-64
2023/10/10 07:24:02;;;;;;;0.10;0.10;;;;;;;24.52;62.14;101896.25;5072834;28;20024;-65
2023/10/10 07:26:41;;;;;;;0.10;0.10;;;;;;;24.46;61.58;101888.34;5072725;28;20515;-63
2023/10/10 07:31:53;;;;;;;0.10;0.10;;;;;;;22.89;67.21;101891.50;5072466;28;20039;-64
2023/10/10 07:34:19;;;;;;;0.03;0.03;;;;;;;23.93;64.09;101885.56;5072239;28;20108;-64
2023/10/10 07:36:50;;;;;;;0.10;0.10;;;;;;;24.39;62.28;101883.22;5072361;28;20037;-64
2023/10/10 07:39:36;;;;;;;0.10;0.10;;;;;;;23.92;63.42;101885.88;5073211;28;20024;-63
2023/10/10 07:42:02;;;;;;;0.10;0.10;;;;;;;24.20;62.75;101887.81;5072119;28;20055;-65
2023/10/10 07:44:30;;;;;;;0.10;0.10;;;;;;;23.50;64.93;101884.56;5072040;28;20032;-63
2023/10/10 07:47:19;;;;;;;0.00;0.00;;;;;;;24.19;63.12;101875.19;5072116;28;20048;-64
2023/10/10 07:49:50;;;;;;;0.20;0.20;;;;;;;24.45;62.20;101864.72;5072053;28;20040;-64
2023/10/10 07:52:20;;;;;;;0.10;0.10;;;;;;;24.42;61.68;101858.72;5072072;28;20029;-64
2023/10/10 07:54:46;;;;;;;0.00;0.00;;;;;;;24.52;61.90;101860.53;5072009;28;20214;-63
2023/10/10 07:57:17;;;;;;;0.00;0.00;;;;;;;24.87;60.44;101854.59;5070988;28;20036;-64
2023/10/10 07:59:46;;;;;;;0.10;0.10;;;;;;;24.19;62.73;101856.78;5071325;28;20101;-64
2023/10/10 08:05:11;;;;;;;0.10;0.10;;;;;;;24.34;62.38;101864.03;4989339;28;20128;-64
2023/10/10 08:07:36;;;;;;;0.10;0.10;;;;;;;24.11;63.38;101857.41;4989378;28;20057;-64
2023/10/10 08:10:29;;;;;;;0.10;0.10;;;;;;;24.98;60.38;101855.28;4989676;28;20039;-63
2023/10/10 08:12:56;;;;;;;0.10;0.10;;;;;;;25.24;59.14;101864.78;4989507;28;20038;-64
2023/10/10 08:15:25;;;;;;;0.10;0.10;;;;;;;24.19;62.95;101867.78;4985341;28;20042;-64
2023/10/10 08:17:54;;;;;;;0.10;0.10;;;;;;;24.05;63.41;101874.22;4970165;28;20026;-64
2023/10/10 08:23:08;;;;;;;0.05;0.05;;;;;;;23.89;63.35;101875.44;4969293;28;20035;-63
2023/10/10 08:25:37;;;;;;;0.05;0.05;;;;;;;24.58;62.44;101869.50;4969716;28;20535;-64
2023/10/10 08:28:03;;;;;;;0.10;0.10;;;;;;;24.92;61.04;101878.47;4968817;28;20490;-63
2023/10/10 08:30:28;;;;;;;0.10;0.10;;;;;;;25.24;59.06;101875.78;4969929;28;20049;-63
2023/10/10 08:32:58;;;;;;;0.10;0.10;;;;;;;25.29;60.20;101872.97;4970093;28;20140;-63
2023/10/10 08:35:24;;;;;;;0.10;0.10;;;;;;;25.63;58.66;101879.03;4969550;28;20157;-63
2023/10/10 08:37:51;;;;;;;0.10;0.10;;;;;;;25.46;59.40;101877.97;4969145;28;20454;-65
2023/10/10 08:40:19;;;;;;;0.03;0.03;;;;;;;25.82;58.50;101863.31;4969574;28;20035;-64
2023/10/10 08:42:48;;;;;;;0.08;0.08;;;;;;;26.33;56.72;101860.47;5050885;28;20067;-62
2023/10/10 08:45:22;;;;;;;0.00;0.00;;;;;;;25.41;58.05;101867.88;5051328;28;20025;-64
2023/10/10 08:48:00;;;;;;;0.00;0.00;;;;;;;25.94;57.81;101862.81;5050936;28;20087;-64
2023/10/10 08:50:27;;;;;;;0.00;0.00;;;;;;;26.09;56.89;101865.31;5050823;28;20040;-64
2023/10/10 08:52:53;;;;;;;0.10;0.10;;;;;;;26.42;55.44;101858.63;5070598;28;20034;-64
2023/10/10 08:55:26;;;;;;;0.00;0.00;;;;;;;25.33;59.26;101856.66;5070837;28;20407;-64
2023/10/10 08:57:52;;;;;;;0.00;0.00;;;;;;;26.28;56.28;101855.03;5069470;28;20067;-64
2023/10/10 09:00:18;;;;;;;0.03;0.03;;;;;;;26.51;55.27;101856.78;5078314;28;20403;-64
2023/10/10 09:02:44;;;;;;;0.00;0.00;;;;;;;26.26;56.23;101842.69;5078964;28;20021;-63
2023/10/10 09:05:14;;;;;;;0.10;0.10;;;;;;;26.67;55.56;101844.28;5070691;28;20404;-64
2023/10/10 09:07:43;;;;;;;0.00;0.00;;;;;;;26.47;55.34;101838.41;5070303;28;20028;-64
2023/10/10 09:10:13;;;;;;;0.00;0.00;;;;;;;26.18;55.63;101835.94;5070231;28;20077;-64
2023/10/10 09:13:01;;;;;;;0.00;0.00;;;;;;;25.59;58.25;101833.16;5070334;28;20048;-64
2023/10/10 09:15:27;;;;;;;0.00;0.00;;;;;;;25.77;57.28;101835.84;5066933;28;20032;-63
2023/10/10 09:18:10;;;;;;;0.00;0.00;;;;;;;26.53;55.30;101832.47;5049279;28;20017;-64
2023/10/10 09:20:37;;;;;;;0.00;0.00;;;;;;;26.51;55.76;101840.25;5053803;28;20097;-63
2023/10/10 09:23:18;;;;;;;0.00;0.00;;;;;;;25.35;59.21;101837.94;5082749;28;20032;-64
2023/10/10 09:25:48;;;;;;;0.00;0.00;;;;;;;26.30;56.49;101824.44;5050077;28;20033;-65
2023/10/10 09:28:16;;;;;;;0.10;0.10;;;;;;;25.62;58.87;101825.09;5069596;28;20493;-64
2023/10/10 09:31:00;;;;;;;0.00;0.00;;;;;;;26.66;55.68;101825.31;5070254;28;20074;-64
2023/10/10 09:33:30;;;;;;;0.00;0.00;;;;;;;26.77;55.10;101821.25;5083219;28;20120;-64
2023/10/10 09:36:15;;;;;;;0.00;0.00;;;;;;;27.25;54.04;101813.22;5090700;28;20114;-64
2023/10/10 09:38:45;;;;;;;0.00;0.00;;;;;;;26.77;54.87;101810.22;5088479;28;20430;-63
2023/10/10 09:41:29;;;;;;;0.00;0.00;;;;;;;26.71;55.30;101819.72;5090125;28;20119;-64
2023/10/10 09:49:40;;;;;;;;;;;;;;;27.34;53.88;101816.91;5090484;28;20503;-62
2023/10/10 09:55:08;;;;;;;0.00;0.00;;;;;;;26.87;56.53;101812.72;5054503;28;20575;-65
2023/10/10 09:57:42;;;;;;;0.00;0.00;;;;;;;27.18;55.08;101808.13;5077533;28;20071;-64
2023/10/10 10:00:15;;;;;;;0.00;0.00;;;;;;;27.54;53.53;101810.84;5069986;28;20059;-63
2023/10/10 10:02:48;;;;;;;0.00;0.00;;;;;;;28.21;51.95;101822.59;5069414;28;20127;-65
2023/10/10 10:05:21;;;;;;;0.00;0.00;;;;;;;28.72;50.46;101817.22;5069368;28;20043;-63
2023/10/10 10:07:56;;;;;;;0.00;0.00;;;;;;;28.94;49.86;101816.28;5069253;28;20459;-64
2023/10/10 10:10:54;;;;;;;0.00;0.00;;;;;;;28.79;50.13;101820.34;5069290;28;20036;-63
2023/10/10 10:13:48;;;;;;;0.00;0.00;;;;;;;28.44;50.81;101821.38;5068942;28;20032;-65
2023/10/10 10:16:35;;;;;;;0.00;0.00;;;;;;;28.77;50.03;101825.41;4987117;28;20050;-63
2023/10/10 10:19:15;;;;;;;0.00;0.00;;;;;;;29.23;48.98;101816.47;4987318;28;20542;-65
2023/10/10 10:24:32;;;;;;;0.00;0.00;;;;;;;29.62;47.40;101816.25;4987200;28;20517;-65
2023/10/10 10:27:31;;;;;;;0.00;0.00;;;;;;;30.25;45.61;101810.66;4987594;28;20146;-65
2023/10/10 10:30:07;;;;;;;0.00;0.00;;;;;;;30.34;44.69;101805.13;4987240;28;20505;-64
2023/10/10 10:32:35;;;;;;;0.00;0.00;;;;;;;30.45;45.57;101800.00;4987003;28;20038;-65
2023/10/10 10:35:01;;;;;;;0.00;0.00;;;;;;;30.24;44.60;101803.50;4986896;28;20128;-64
2023/10/10 10:37:29;;;;;;;0.00;0.00;;;;;;;29.98;43.74;101801.97;4986979;28;20522;-64
2023/10/10 10:42:46;;;;;;;0.00;0.00;;;;;;;29.77;42.58;101796.38;4987315;28;20043;-64
2023/10/10 10:45:35;;;;;;;0.00;0.00;;;;;;;28.72;44.41;101802.59;4987428;28;20061;-64
2023/10/10 10:48:08;;;;;;;0.00;0.00;;;;;;;28.72;43.48;101803.41;4986475;28;20090;-64
2023/10/10 10:50:46;;;;;;;0.00;0.00;;;;;;;28.02;45.19;101808.22;4970786;28;20038;-65
2023/10/10 10:53:31;;;;;;;0.00;0.00;;;;;;;29.08;43.66;101809.47;5040562;28;20028;-64
2023/10/10 11:01:58;;;;;;;0.00;0.00;;;;;;;27.83;45.22;101794.63;4986580;28;20113;-65
2023/10/10 11:07:41;;;;;;;0.00;0.00;;;;;;;28.64;43.88;101793.13;4986595;28;20004;-63
2023/10/10 11:09:52;;;;;;;0.00;0.00;;;;;;;28.18;44.43;101790.06;4983641;28;20561;-64
2023/10/10 11:12:21;;;;;;;0.00;0.00;;;;;;;29.21;42.37;101777.22;4986771;28;20058;-63
2023/10/10 11:14:49;;;;;;;0.00;0.00;;;;;;;29.28;42.03;101780.31;4986950;28;20118;-63
2023/10/10 11:17:18;;;;;;;0.00;0.00;;;;;;;29.06;43.14;101772.16;4986227;28;20047;-65
2023/10/10 11:19:46;;;;;;;0.00;0.00;;;;;;;29.91;40.41;101768.44;4986440;28;20039;-64
2023/10/10 11:22:38;;;;;;;0.00;0.00;;;;;;;29.35;41.02;101769.53;4986540;28;20035;-63
2023/10/10 11:25:04;;;;;;;0.00;0.00;;;;;;;29.48;42.01;101763.81;4986417;28;20359;-63
2023/10/10 11:27:32;;;;;;;0.00;0.00;;;;;;;28.61;41.79;101763.38;4986613;28;20061;-64
2023/10/10 11:30:03;;;;;;;0.00;0.00;;;;;;;28.80;42.00;101755.56;4986851;28;20073;-63
2023/10/10 11:32:49;;;;;;;0.00;0.00;;;;;;;28.74;41.75;101756.06;4986407;28;20401;-64
2023/10/10 11:35:26;;;;;;;0.00;0.00;;;;;;;29.93;40.75;101757.81;4986200;28;20106;-63
2023/10/10 11:38:16;;;;;;;0.00;0.00;;;;;;;29.29;40.02;101754.25;5009009;28;20037;-65
2023/10/10 11:40:43;;;;;;;0.00;0.00;;;;;;;29.67;40.83;101749.59;5068238;28;20424;-63
2023/10/10 11:43:11;;;;;;;0.00;0.00;;;;;;;29.01;39.30;101758.50;5068109;28;20111;-63
2023/10/10 11:45:40;;;;;;;0.00;0.00;;;;;;;29.77;37.97;101748.44;5068169;28;20013;-65
2023/10/10 11:48:15;;;;;;;0.00;0.00;;;;;;;29.74;37.54;101749.91;5068915;28;20032;-63
2023/10/10 11:50:56;;;;;;;0.00;0.00;;;;;;;30.24;37.71;101738.91;5053466;28;20036;-63
2023/10/10 11:53:28;;;;;;;0.00;0.00;;;;;;;28.90;38.04;101752.47;5067939;28;20037;-62
2023/10/10 11:55:55;;;;;;;0.00;0.00;;;;;;;28.79;38.64;101751.19;5068033;28;20064;-63
2023/10/10 11:58:23;;;;;;;0.00;0.00;;;;;;;29.25;38.68;101739.41;5067938;28;20142;-64
2023/10/10 12:01:05;;;;;;;0.00;0.00;;;;;;;29.07;38.51;101738.59;5071886;28;20035;-63
2023/10/10 12:06:18;;;;;;;0.00;0.00;;;;;;;30.05;37.14;101744.88;5072522;28;20024;-64
2023/10/10 12:08:48;;;;;;;0.00;0.00;;;;;;;30.02;36.00;101739.19;5071942;28;20186;-64
2023/10/10 12:11:19;;;;;;;0.00;0.00;;;;;;;31.05;34.88;101733.75;5071462;28;20472;-64
2023/10/10 12:13:45;;;;;;;0.00;0.00;;;;;;;31.47;34.21;101738.06;5071547;28;20062;-63
2023/10/10 12:16:10;;;;;;;0.00;0.00;;;;;;;30.81;36.29;101739.97;5071564;28;20053;-63
2023/10/10 12:18:44;;;;;;;0.00;0.00;;;;;;;30.29;35.81;101733.19;5071308;28;20108;-63
2023/10/10 12:21:10;;;;;;;0.00;0.00;;;;;;;30.72;35.61;101724.56;5071799;28;20145;-63
2023/10/10 12:23:36;;;;;;;0.00;0.00;;;;;;;30.89;35.76;101733.59;5071217;28;20039;-63
2023/10/10 12:26:04;;;;;;;0.00;0.00;;;;;;;30.38;36.03;101722.84;5071358;28;20040;-62
2023/10/10 12:28:30;;;;;;;0.00;0.00;;;;;;;31.56;33.79;101721.31;5071390;28;20120;-63
2023/10/10 12:31:02;;;;;;;0.00;0.00;;;;;;;31.49;33.99;101721.06;5071507;28;20500;-63
2023/10/10 12:33:28;;;;;;;0.00;0.00;;;;;;;30.81;34.91;101719.72;5071373;28;20102;-63
2023/10/10 12:35:53;;;;;;;0.00;0.00;;;;;;;30.37;35.53;101720.44;5071504;28;20028;-62
2023/10/10 12:38:22;;;;;;;0.00;0.00;;;;;;;31.12;34.32;101714.56;5071179;28;20039;-64
2023/10/10 12:40:47;;;;;;;0.00;0.00;;;;;;;30.73;34.93;101707.56;5071446;28;20036;-63
2023/10/10 12:43:12;;;;;;;0.00;0.00;;;;;;;31.33;33.80;101708.97;5071189;28;20120;-63
2023/10/10 12:45:38;;;;;;;0.00;0.00;;;;;;;30.99;35.64;101704.59;5063361;28;20051;-63
2023/10/10 12:48:13;;;;;;;0.00;0.00;;;;;;;32.13;33.62;101701.75;5076933;28;20021;-63
2023/10/10 12:50:38;;;;;;;0.00;0.00;;;;;;;31.90;34.15;101698.63;5070745;28;20048;-63
2023/10/10 12:53:15;;;;;;;0.00;0.00;;;;;;;31.65;35.15;101695.03;5070945;28;20043;-63
2023/10/10 12:55:49;;;;;;;0.00;0.00;;;;;;;31.44;35.28;101693.50;5070914;28;20098;-63
2023/10/10 12:58:20;;;;;;;0.00;0.00;;;;;;;33.05;32.64;101694.22;5070404;28;20068;-63
2023/10/10 13:00:52;;;;;;;0.00;0.00;;;;;;;32.71;32.98;101690.03;5070594;28;20044;-63
2023/10/10 13:03:28;;;;;;;0.00;0.00;;;;;;;31.10;34.38;101695.47;5070883;28;20496;-63
2023/10/10 13:05:58;;;;;;;0.00;0.00;;;;;;;31.69;34.03;101693.19;5071281;28;20016;-63
2023/10/10 13:08:38;;;;;;;0.15;0.00;;;;;;;30.98;34.34;101695.44;5070810;28;20063;-63
2023/10/10 13:11:14;;;;;;;0.00;0.00;;;;;;;31.13;34.68;101682.88;5070172;28;20098;-62
2023/10/10 13:13:48;;;;;;;0.00;0.00;;;;;;;31.65;33.96;101694.19;5070553;28;20094;-63
2023/10/10 13:19:05;;;;;;;0.00;0.00;;;;;;;30.80;35.34;101690.38;5070370;28;20086;-63
2023/10/10 13:21:31;;;;;;;0.00;0.00;;;;;;;31.71;34.52;101696.41;5070340;28;20071;-62
2023/10/10 13:23:56;;;;;;;0.00;0.00;;;;;;;30.42;35.90;101686.91;5070890;28;20020;-63
2023/10/10 13:26:22;;;;;;;0.00;0.00;;;;;;;31.45;34.58;101679.25;5070289;28;20074;-63
2023/10/10 13:28:48;;;;;;;0.00;0.00;;;;;;;30.92;35.23;101688.47;5070289;28;20056;-63
2023/10/10 13:31:14;;;;;;;0.00;0.00;;;;;;;31.35;35.26;101685.22;5070156;28;20032;-63
2023/10/10 13:33:40;;;;;;;0.00;0.00;;;;;;;31.93;34.52;101687.66;5070211;28;20461;-64
2023/10/10 13:36:15;;;;;;;0.00;0.00;;;;;;;31.46;35.49;101693.97;5052421;28;20123;-63
2023/10/10 13:38:47;;;;;;;0.00;0.00;;;;;;;30.63;36.99;101685.78;5069914;28;20032;-63
2023/10/10 13:41:27;;;;;;;0.00;0.00;;;;;;;30.84;37.26;101680.25;5074945;28;20028;-63
2023/10/10 13:43:57;;;;;;;0.00;0.00;;;;;;;31.06;36.44;101685.38;5078376;28;20040;-64
2023/10/10 13:46:23;;;;;;;0.00;0.00;;;;;;;31.70;35.57;101680.09;5069921;28;20059;-63
2023/10/10 13:48:49;;;;;;;0.00;0.00;;;;;;;31.11;36.66;101676.84;5069663;28;20037;-61
2023/10/10 13:51:16;;;;;;;0.00;0.00;;;;;;;30.57;36.45;101664.91;5070125;28;20036;-63
2023/10/10 13:53:44;;;;;;;0.00;0.00;;;;;;;30.47;37.03;101681.19;5069794;28;20040;-61
2023/10/10 13:56:11;;;;;;;0.00;0.00;;;;;;;30.07;38.75;101689.88;5051165;28;20482;-63
2023/10/10 13:58:38;;;;;;;0.00;0.00;;;;;;;30.41;37.70;101672.22;5069296;28;20052;-65
2023/10/10 14:03:45;;;;;;;0.00;0.00;;;;;;;30.92;36.63;101669.03;5069435;28;20055;-63
2023/10/10 14:06:12;;;;;;;0.00;0.00;;;;;;;30.71;38.11;101667.41;5069835;28;20027;-64
2023/10/10 14:08:43;;;;;;;0.00;0.00;;;;;;;30.32;38.10;101671.50;5069386;28;20036;-63
2023/10/10 14:11:10;;;;;;;0.00;0.00;;;;;;;30.33;39.14;101664.00;5069620;28;20430;-63
2023/10/10 14:13:35;;;;;;;0.00;0.00;;;;;;;30.89;38.46;101675.28;5069309;28;20032;-63
2023/10/10 14:16:01;;;;;;;0.00;0.00;;;;;;;31.55;37.04;101664.09;5069129;28;20416;-63
2023/10/10 14:18:31;;;;;;;0.00;0.00;;;;;;;30.67;39.03;101660.91;5069421;28;20435;-61
2023/10/10 14:21:01;;;;;;;0.00;0.00;;;;;;;31.36;37.51;101661.03;5069611;28;20037;-63
2023/10/10 14:23:29;;;;;;;0.00;0.00;;;;;;;31.00;37.61;101651.47;5068865;28;20496;-64
2023/10/10 14:26:14;;;;;;;0.00;0.00;;;;;;;30.71;38.10;101657.13;5069108;28;20075;-63
2023/10/10 14:28:50;;;;;;;0.00;0.00;;;;;;;30.95;38.21;101651.69;5069114;28;20041;-64
2023/10/10 14:31:31;;;;;;;0.00;0.00;;;;;;;30.11;40.17;101646.47;5068953;28;20033;-62
2023/10/10 14:34:00;;;;;;;0.00;0.00;;;;;;;31.27;38.03;101647.25;5069182;28;20028;-62